sensor_id;sensor_type;location;lat;lon;timestamp;pressure;altitude;pressure_sealevel;temperature;humidity
12785;BME280;6456;42.680;23.260;2024-02-16T00:02:07;95165.41;;;3.45;97.16
12785;BME280;6456;42.680;23.260;2024-02-16T00:04:34;95199.81;;;3.65;97.60
12785;BME280;6456;42.680;23.260;2024-02-16T00:07:03;95152.63;;;3.26;98.34
12785;BME280;6456;42.680;23.260;2024-02-16T00:09:31;95169.75;;;3.37;99.01
12785;BME280;6456;42.680;23.260;2024-02-16T00:12:01;95160.41;;;3.18;99.37
12785;BME280;6456;42.680;23.260;2024-02-16T00:14:35;95178.63;;;3.26;99.70
12785;BME280;6456;42.680;23.260;2024-02-16T00:17:02;95157.03;;;3.00;100.00
12785;BME280;6456;42.680;23.260;2024-02-16T00:19:30;95196.81;;;3.18;100.00
12785;BME280;6456;42.680;23.260;2024-02-16T00:21:57;95162.06;;;3.01;100.00
12785;BME280;6456;42.680;23.260;2024-02-16T00:24:27;95116.38;;;2.65;100.00
12785;BME280;6456;42.680;23.260;2024-02-16T00:26:57;95234.00;;;3.44;100.00
12785;BME280;6456;42.680;23.260;2024-02-16T00:29:24;95218.16;;;3.30;100.00
12785;BME280;6456;42.680;23.260;2024-02-16T00:31:51;95102.44;;;2.48;100.00
12785;BME280;6456;42.680;23.260;2024-02-16T00:34:22;95228.56;;;3.30;100.00
12785;BME280;6456;42.680;23.260;2024-02-16T00:36:49;95199.34;;;3.10;100.00
12785;BME280;6456;42.680;23.260;2024-02-16T00:39:18;95231.16;;;3.30;100.00
12785;BME280;6456;42.680;23.260;2024-02-16T00:41:47;95157.84;;;2.75;100.00
12785;BME280;6456;42.680;23.260;2024-02-16T00:44:14;95158.69;;;2.57;100.00
12785;BME280;6456;42.680;23.260;2024-02-16T00:46:41;95244.81;;;3.06;100.00
12785;BME280;6456;42.680;23.260;2024-02-16T00:49:10;95118.56;;;2.34;100.00
12785;BME280;6456;42.680;23.260;2024-02-16T00:51:41;95120.22;;;2.35;100.00
12785;BME280;6456;42.680;23.260;2024-02-16T00:54:08;95244.88;;;3.14;100.00
12785;BME280;6456;42.680;23.260;2024-02-16T00:56:35;95199.31;;;2.84;100.00
12785;BME280;6456;42.680;23.260;2024-02-16T00:59:04;95118.28;;;2.37;100.00
12785;BME280;6456;42.680;23.260;2024-02-16T01:01:34;95219.25;;;3.01;100.00
12785;BME280;6456;42.680;23.260;2024-02-16T01:04:01;95123.66;;;2.44;100.00
12785;BME280;6456;42.680;23.260;2024-02-16T01:06:29;95181.59;;;2.80;100.00
12785;BME280;6456;42.680;23.260;2024-02-16T01:08:56;95130.88;;;2.50;100.00
12785;BME280;6456;42.680;23.260;2024-02-16T01:11:23;95209.63;;;2.94;100.00
12785;BME280;6456;42.680;23.260;2024-02-16T01:13:51;95146.53;;;2.58;100.00
12785;BME280;6456;42.680;23.260;2024-02-16T01:16:20;95149.25;;;2.56;100.00
12785;BME280;6456;42.680;23.260;2024-02-16T01:18:47;95202.47;;;2.96;100.00
12785;BME280;6456;42.680;23.260;2024-02-16T01:21:14;95112.34;;;2.27;100.00
12785;BME280;6456;42.680;23.260;2024-02-16T01:23:42;95168.16;;;2.67;100.00
12785;BME280;6456;42.680;23.260;2024-02-16T01:26:10;95202.38;;;2.80;100.00
12785;BME280;6456;42.680;23.260;2024-02-16T01:28:37;95107.44;;;2.24;100.00
12785;BME280;6456;42.680;23.260;2024-02-16T01:31:04;95128.75;;;2.28;100.00
12785;BME280;6456;42.680;23.260;2024-02-16T01:33:33;95140.16;;;2.52;100.00
12785;BME280;6456;42.680;23.260;2024-02-16T01:36:01;95220.31;;;2.91;100.00
12785;BME280;6456;42.680;23.260;2024-02-16T01:38:28;95230.94;;;2.97;100.00
12785;BME280;6456;42.680;23.260;2024-02-16T01:40:56;95220.69;;;2.96;100.00
12785;BME280;6456;42.680;23.260;2024-02-16T01:43:23;95203.19;;;2.80;100.00
12785;BME280;6456;42.680;23.260;2024-02-16T01:45:50;95159.41;;;2.68;100.00
12785;BME280;6456;42.680;23.260;2024-02-16T01:48:18;95138.88;;;2.56;100.00
12785;BME280;6456;42.680;23.260;2024-02-16T01:50:48;95137.09;;;2.57;100.00
12785;BME280;6456;42.680;23.260;2024-02-16T01:53:16;95095.50;;;2.31;100.00
12785;BME280;6456;42.680;23.260;2024-02-16T01:55:44;95106.53;;;2.33;100.00
12785;BME280;6456;42.680;23.260;2024-02-16T01:58:12;95093.91;;;2.38;100.00
12785;BME280;6456;42.680;23.260;2024-02-16T02:00:39;95201.66;;;3.13;100.00
12785;BME280;6456;42.680;23.260;2024-02-16T02:03:07;95105.34;;;2.45;100.00
12785;BME280;6456;42.680;23.260;2024-02-16T02:05:34;95162.41;;;2.81;100.00
12785;BME280;6456;42.680;23.260;2024-02-16T02:08:11;95200.75;;;3.04;100.00
12785;BME280;6456;42.680;23.260;2024-02-16T02:10:38;95142.84;;;2.69;100.00
12785;BME280;6456;42.680;23.260;2024-02-16T02:13:06;95207.50;;;3.15;100.00
12785;BME280;6456;42.680;23.260;2024-02-16T02:15:33;95193.25;;;3.01;100.00
12785;BME280;6456;42.680;23.260;2024-02-16T02:18:00;95099.84;;;2.48;100.00
12785;BME280;6456;42.680;23.260;2024-02-16T02:20:27;95212.03;;;3.13;100.00
12785;BME280;6456;42.680;23.260;2024-02-16T02:22:56;95151.47;;;2.69;100.00
12785;BME280;6456;42.680;23.260;2024-02-16T02:25:23;95180.38;;;2.92;100.00
12785;BME280;6456;42.680;23.260;2024-02-16T02:27:52;95128.78;;;2.53;100.00
12785;BME280;6456;42.680;23.260;2024-02-16T02:30:19;95145.97;;;2.72;100.00
12785;BME280;6456;42.680;23.260;2024-02-16T02:32:46;95154.13;;;2.77;100.00
12785;BME280;6456;42.680;23.260;2024-02-16T02:35:15;95197.03;;;3.07;100.00
12785;BME280;6456;42.680;23.260;2024-02-16T02:37:43;95087.31;;;2.44;100.00
12785;BME280;6456;42.680;23.260;2024-02-16T02:40:12;95118.38;;;2.53;100.00
12785;BME280;6456;42.680;23.260;2024-02-16T02:42:39;95219.28;;;3.27;100.00
12785;BME280;6456;42.680;23.260;2024-02-16T02:45:07;95170.63;;;2.94;100.00
12785;BME280;6456;42.680;23.260;2024-02-16T02:47:34;95187.25;;;3.01;100.00
12785;BME280;6456;42.680;23.260;2024-02-16T02:50:02;95184.97;;;2.98;100.00
12785;BME280;6456;42.680;23.260;2024-02-16T02:52:30;95197.22;;;3.05;100.00
12785;BME280;6456;42.680;23.260;2024-02-16T02:54:57;95185.63;;;3.00;100.00
12785;BME280;6456;42.680;23.260;2024-02-16T02:57:25;95167.59;;;2.81;100.00
12785;BME280;6456;42.680;23.260;2024-02-16T02:59:52;95173.94;;;2.78;100.00
12785;BME280;6456;42.680;23.260;2024-02-16T03:02:19;95142.75;;;2.52;100.00
12785;BME280;6456;42.680;23.260;2024-02-16T03:04:46;95216.00;;;2.99;100.00
12785;BME280;6456;42.680;23.260;2024-02-16T03:07:14;95115.97;;;2.34;100.00
12785;BME280;6456;42.680;23.260;2024-02-16T03:09:41;95209.63;;;2.94;100.00
12785;BME280;6456;42.680;23.260;2024-02-16T03:12:09;95166.47;;;2.57;100.00
12785;BME280;6456;42.680;23.260;2024-02-16T03:14:38;95086.69;;;2.24;100.00
12785;BME280;6456;42.680;23.260;2024-02-16T03:17:05;95224.31;;;3.03;100.00
12785;BME280;6456;42.680;23.260;2024-02-16T03:19:32;95227.88;;;3.02;100.00
12785;BME280;6456;42.680;23.260;2024-02-16T03:22:00;95211.38;;;2.85;100.00
12785;BME280;6456;42.680;23.260;2024-02-16T03:24:27;95135.19;;;2.41;100.00
12785;BME280;6456;42.680;23.260;2024-02-16T03:26:54;95168.09;;;2.58;100.00
12785;BME280;6456;42.680;23.260;2024-02-16T03:29:21;95200.53;;;2.72;100.00
12785;BME280;6456;42.680;23.260;2024-02-16T03:31:50;95150.84;;;2.32;100.00
12785;BME280;6456;42.680;23.260;2024-02-16T03:34:17;95176.22;;;2.55;100.00
12785;BME280;6456;42.680;23.260;2024-02-16T03:36:44;95176.81;;;2.49;100.00
12785;BME280;6456;42.680;23.260;2024-02-16T03:39:11;95145.66;;;2.32;100.00
12785;BME280;6456;42.680;23.260;2024-02-16T03:41:38;95193.78;;;2.62;100.00
12785;BME280;6456;42.680;23.260;2024-02-16T03:44:05;95204.63;;;2.75;100.00
12785;BME280;6456;42.680;23.260;2024-02-16T03:46:33;95145.28;;;2.44;100.00
12785;BME280;6456;42.680;23.260;2024-02-16T03:49:01;95195.19;;;2.74;100.00
12785;BME280;6456;42.680;23.260;2024-02-16T03:51:28;95142.00;;;2.42;100.00
12785;BME280;6456;42.680;23.260;2024-02-16T03:53:55;95176.63;;;2.69;100.00
12785;BME280;6456;42.680;23.260;2024-02-16T03:56:22;95234.19;;;2.99;100.00
12785;BME280;6456;42.680;23.260;2024-02-16T03:58:49;95147.41;;;2.49;100.00
12785;BME280;6456;42.680;23.260;2024-02-16T04:01:16;95176.91;;;2.66;100.00
12785;BME280;6456;42.680;23.260;2024-02-16T04:03:43;95171.03;;;2.55;100.00
12785;BME280;6456;42.680;23.260;2024-02-16T04:06:12;95149.72;;;2.34;100.00
12785;BME280;6456;42.680;23.260;2024-02-16T04:08:39;95141.94;;;2.34;100.00
12785;BME280;6456;42.680;23.260;2024-02-16T04:11:06;95177.16;;;2.54;100.00
12785;BME280;6456;42.680;23.260;2024-02-16T04:13:33;95203.50;;;2.59;100.00
12785;BME280;6456;42.680;23.260;2024-02-16T04:16:00;95150.84;;;2.32;100.00
12785;BME280;6456;42.680;23.260;2024-02-16T04:18:27;95166.13;;;2.35;100.00
12785;BME280;6456;42.680;23.260;2024-02-16T04:20:54;95193.88;;;2.52;100.00
12785;BME280;6456;42.680;23.260;2024-02-16T04:23:22;95194.16;;;2.49;100.00
12785;BME280;6456;42.680;23.260;2024-02-16T04:25:49;95198.03;;;2.45;100.00
12785;BME280;6456;42.680;23.260;2024-02-16T04:28:16;95151.66;;;2.15;100.00
12785;BME280;6456;42.680;23.260;2024-02-16T04:30:43;95142.03;;;2.07;100.00
12785;BME280;6456;42.680;23.260;2024-02-16T04:33:10;95176.28;;;2.28;100.00
12785;BME280;6456;42.680;23.260;2024-02-16T04:35:38;95198.84;;;2.45;100.00
12785;BME280;6456;42.680;23.260;2024-02-16T04:38:05;95182.81;;;2.32;100.00
12785;BME280;6456;42.680;23.260;2024-02-16T04:40:36;95136.97;;;2.06;100.00
12785;BME280;6456;42.680;23.260;2024-02-16T04:43:04;95131.03;;;1.95;100.00
12785;BME280;6456;42.680;23.260;2024-02-16T04:45:31;95138.06;;;2.03;100.00
12785;BME280;6456;42.680;23.260;2024-02-16T04:48:02;95172.00;;;2.19;100.00
12785;BME280;6456;42.680;23.260;2024-02-16T04:50:31;95224.88;;;2.53;100.00
12785;BME280;6456;42.680;23.260;2024-02-16T04:52:58;95105.38;;;1.75;100.00
12785;BME280;6456;42.680;23.260;2024-02-16T04:55:26;95231.06;;;2.52;100.00
12785;BME280;6456;42.680;23.260;2024-02-16T04:57:55;95185.25;;;2.16;100.00
12785;BME280;6456;42.680;23.260;2024-02-16T05:00:23;95156.31;;;1.93;100.00
12785;BME280;6456;42.680;23.260;2024-02-16T05:02:50;95218.91;;;2.35;100.00
12785;BME280;6456;42.680;23.260;2024-02-16T05:05:17;95180.34;;;2.13;100.00
12785;BME280;6456;42.680;23.260;2024-02-16T05:07:47;95239.44;;;2.46;100.00
12785;BME280;6456;42.680;23.260;2024-02-16T05:10:15;95209.66;;;2.23;100.00
12785;BME280;6456;42.680;23.260;2024-02-16T05:12:42;95229.19;;;2.27;100.00
12785;BME280;6456;42.680;23.260;2024-02-16T05:15:10;95117.06;;;1.61;100.00
12785;BME280;6456;42.680;23.260;2024-02-16T05:17:38;95191.09;;;2.01;100.00
12785;BME280;6456;42.680;23.260;2024-02-16T05:20:09;95203.56;;;1.97;100.00
12785;BME280;6456;42.680;23.260;2024-02-16T05:22:41;95256.13;;;2.26;100.00
12785;BME280;6456;42.680;23.260;2024-02-16T05:25:09;95161.69;;;1.65;100.00
12785;BME280;6456;42.680;23.260;2024-02-16T05:27:36;95247.72;;;2.15;100.00
12785;BME280;6456;42.680;23.260;2024-02-16T05:30:04;95209.22;;;1.83;100.00
12785;BME280;6456;42.680;23.260;2024-02-16T05:32:35;95246.81;;;2.06;100.00
12785;BME280;6456;42.680;23.260;2024-02-16T05:35:06;95115.78;;;1.20;100.00
12785;BME280;6456;42.680;23.260;2024-02-16T05:37:37;95278.44;;;2.19;100.00
12785;BME280;6456;42.680;23.260;2024-02-16T05:40:07;95281.97;;;2.18;100.00
12785;BME280;6456;42.680;23.260;2024-02-16T05:42:47;95187.47;;;1.66;100.00
12785;BME280;6456;42.680;23.260;2024-02-16T05:45:14;95194.97;;;1.69;100.00
12785;BME280;6456;42.680;23.260;2024-02-16T05:47:44;95250.50;;;2.04;100.00
12785;BME280;6456;42.680;23.260;2024-02-16T05:50:12;95242.22;;;2.00;100.00
12785;BME280;6456;42.680;23.260;2024-02-16T05:52:39;95171.81;;;1.58;100.00
12785;BME280;6456;42.680;23.260;2024-02-16T05:55:07;95210.22;;;1.82;100.00
12785;BME280;6456;42.680;23.260;2024-02-16T05:57:34;95211.53;;;1.86;100.00
12785;BME280;6456;42.680;23.260;2024-02-16T06:00:02;95203.66;;;1.78;100.00
12785;BME280;6456;42.680;23.260;2024-02-16T06:02:30;95257.28;;;2.14;100.00
12785;BME280;6456;42.680;23.260;2024-02-16T06:04:59;95232.63;;;2.01;100.00
12785;BME280;6456;42.680;23.260;2024-02-16T06:07:26;95163.03;;;1.69;100.00
12785;BME280;6456;42.680;23.260;2024-02-16T06:09:54;95249.34;;;2.16;100.00
12785;BME280;6456;42.680;23.260;2024-02-16T06:12:22;95259.09;;;2.31;100.00
12785;BME280;6456;42.680;23.260;2024-02-16T06:14:49;95266.16;;;2.39;100.00
12785;BME280;6456;42.680;23.260;2024-02-16T06:17:16;95163.50;;;1.82;100.00
12785;BME280;6456;42.680;23.260;2024-02-16T06:19:43;95268.00;;;2.46;100.00
12785;BME280;6456;42.680;23.260;2024-02-16T06:22:12;95214.09;;;2.13;100.00
12785;BME280;6456;42.680;23.260;2024-02-16T06:24:39;95254.53;;;2.43;100.00
12785;BME280;6456;42.680;23.260;2024-02-16T06:27:06;95221.78;;;2.32;100.00
12785;BME280;6456;42.680;23.260;2024-02-16T06:29:33;95260.22;;;2.64;100.00
12785;BME280;6456;42.680;23.260;2024-02-16T06:32:07;95256.66;;;2.65;100.00
12785;BME280;6456;42.680;23.260;2024-02-16T06:34:43;95221.53;;;2.43;100.00
12785;BME280;6456;42.680;23.260;2024-02-16T06:37:12;95266.97;;;2.75;100.00
12785;BME280;6456;42.680;23.260;2024-02-16T06:39:40;95242.78;;;2.56;100.00
12785;BME280;6456;42.680;23.260;2024-02-16T06:42:08;95147.13;;;2.17;100.00
12785;BME280;6456;42.680;23.260;2024-02-16T06:44:37;95200.75;;;2.43;100.00
12785;BME280;6456;42.680;23.260;2024-02-16T06:47:05;95222.38;;;2.62;100.00
12785;BME280;6456;42.680;23.260;2024-02-16T06:49:32;95279.28;;;3.08;100.00
12785;BME280;6456;42.680;23.260;2024-02-16T06:51:59;95288.88;;;3.07;100.00
12785;BME280;6456;42.680;23.260;2024-02-16T06:54:27;95213.72;;;2.79;100.00
12785;BME280;6456;42.680;23.260;2024-02-16T06:56:54;95281.34;;;3.22;100.00
12785;BME280;6456;42.680;23.260;2024-02-16T06:59:20;95293.34;;;3.41;100.00
12785;BME280;6456;42.680;23.260;2024-02-16T07:01:48;95222.53;;;3.03;100.00
12785;BME280;6456;42.680;23.260;2024-02-16T07:04:15;95218.00;;;3.05;100.00
12785;BME280;6456;42.680;23.260;2024-02-16T07:06:43;95218.19;;;3.12;100.00
12785;BME280;6456;42.680;23.260;2024-02-16T07:09:10;95184.16;;;2.97;100.00
12785;BME280;6456;42.680;23.260;2024-02-16T07:11:41;95190.19;;;3.06;100.00
12785;BME280;6456;42.680;23.260;2024-02-16T07:14:12;95300.59;;;3.80;100.00
12785;BME280;6456;42.680;23.260;2024-02-16T07:16:39;95242.16;;;3.49;100.00
12785;BME280;6456;42.680;23.260;2024-02-16T07:19:06;95265.91;;;3.80;100.00
12785;BME280;6456;42.680;23.260;2024-02-16T07:21:35;95229.50;;;3.54;99.83
12785;BME280;6456;42.680;23.260;2024-02-16T07:24:03;95287.06;;;4.11;99.64
12785;BME280;6456;42.680;23.260;2024-02-16T07:26:30;95285.59;;;4.16;98.42
12785;BME280;6456;42.680;23.260;2024-02-16T07:28:59;95247.25;;;3.93;98.21
12785;BME280;6456;42.680;23.260;2024-02-16T07:31:32;95223.63;;;3.86;97.44
12785;BME280;6456;42.680;23.260;2024-02-16T07:33:59;95163.50;;;3.63;97.26
12785;BME280;6456;42.680;23.260;2024-02-16T07:36:38;95260.56;;;4.31;96.60
12785;BME280;6456;42.680;23.260;2024-02-16T07:39:05;95231.22;;;4.13;95.84
12785;BME280;6456;42.680;23.260;2024-02-16T07:41:33;95208.28;;;4.17;94.89
12785;BME280;6456;42.680;23.260;2024-02-16T07:44:01;95240.41;;;4.41;93.74
12785;BME280;6456;42.680;23.260;2024-02-16T07:46:29;95284.63;;;4.75;93.25
12785;BME280;6456;42.680;23.260;2024-02-16T07:48:56;95297.31;;;4.86;92.71
12785;BME280;6456;42.680;23.260;2024-02-16T07:51:23;95177.22;;;4.23;92.37
12785;BME280;6456;42.680;23.260;2024-02-16T07:53:53;95235.25;;;4.66;91.85
12785;BME280;6456;42.680;23.260;2024-02-16T07:56:20;95293.94;;;5.10;91.62
12785;BME280;6456;42.680;23.260;2024-02-16T07:58:47;95183.06;;;4.41;91.00
12785;BME280;6456;42.680;23.260;2024-02-16T08:01:16;95199.22;;;4.53;90.99
12785;BME280;6456;42.680;23.260;2024-02-16T08:03:43;95164.34;;;4.46;90.70
12785;BME280;6456;42.680;23.260;2024-02-16T08:06:13;95277.66;;;5.16;90.98
12785;BME280;6456;42.680;23.260;2024-02-16T08:08:40;95272.25;;;5.09;90.59
12785;BME280;6456;42.680;23.260;2024-02-16T08:11:07;95200.53;;;4.73;90.12
12785;BME280;6456;42.680;23.260;2024-02-16T08:13:34;95181.94;;;4.76;89.80
12785;BME280;6456;42.680;23.260;2024-02-16T08:16:19;95176.41;;;4.87;89.81
12785;BME280;6456;42.680;23.260;2024-02-16T08:18:47;95258.03;;;5.44;89.91
12785;BME280;6456;42.680;23.260;2024-02-16T08:21:16;95215.19;;;5.14;90.00
12785;BME280;6456;42.680;23.260;2024-02-16T08:28:46;95187.47;;;5.13;88.83
12785;BME280;6456;42.680;23.260;2024-02-16T08:31:17;95194.00;;;5.17;87.49
12785;BME280;6456;42.680;23.260;2024-02-16T08:33:44;95165.31;;;5.01;88.02
12785;BME280;6456;42.680;23.260;2024-02-16T08:36:12;95238.78;;;5.53;87.64
12785;BME280;6456;42.680;23.260;2024-02-16T08:38:39;95247.88;;;5.65;87.14
12785;BME280;6456;42.680;23.260;2024-02-16T08:41:09;95230.78;;;5.55;87.58
12785;BME280;6456;42.680;23.260;2024-02-16T08:43:36;95220.34;;;5.55;86.54
12785;BME280;6456;42.680;23.260;2024-02-16T08:46:08;95192.44;;;5.55;85.44
12785;BME280;6456;42.680;23.260;2024-02-16T08:48:37;95253.22;;;5.96;85.15
12785;BME280;6456;42.680;23.260;2024-02-16T08:51:04;95252.84;;;6.07;84.46
12785;BME280;6456;42.680;23.260;2024-02-16T08:53:35;95278.91;;;6.23;85.77
12785;BME280;6456;42.680;23.260;2024-02-16T08:56:03;95204.59;;;5.87;85.00
12785;BME280;6456;42.680;23.260;2024-02-16T08:58:34;95248.22;;;6.17;84.41
12785;BME280;6456;42.680;23.260;2024-02-16T09:01:01;95216.56;;;6.12;83.87
12785;BME280;6456;42.680;23.260;2024-02-16T09:03:29;95261.97;;;6.42;83.63
12785;BME280;6456;42.680;23.260;2024-02-16T09:06:05;95250.31;;;6.53;82.93
12785;BME280;6456;42.680;23.260;2024-02-16T09:08:32;95260.19;;;6.73;82.68
12785;BME280;6456;42.680;23.260;2024-02-16T09:11:00;95320.94;;;7.06;80.97
12785;BME280;6456;42.680;23.260;2024-02-16T09:13:31;95256.69;;;6.81;80.88
12785;BME280;6456;42.680;23.260;2024-02-16T09:15:58;95319.84;;;7.23;78.17
12785;BME280;6456;42.680;23.260;2024-02-16T09:18:27;95206.22;;;6.50;77.29
12785;BME280;6456;42.680;23.260;2024-02-16T09:20:54;95243.31;;;6.76;75.48
12785;BME280;6456;42.680;23.260;2024-02-16T09:23:23;95269.00;;;6.95;74.26
12785;BME280;6456;42.680;23.260;2024-02-16T09:25:53;95273.72;;;6.99;74.87
12785;BME280;6456;42.680;23.260;2024-02-16T09:28:22;95290.03;;;7.24;74.64
12785;BME280;6456;42.680;23.260;2024-02-16T09:30:49;95249.72;;;6.96;74.55
12785;BME280;6456;42.680;23.260;2024-02-16T09:33:16;95271.44;;;7.19;74.08
12785;BME280;6456;42.680;23.260;2024-02-16T09:35:43;95260.69;;;7.14;75.35
12785;BME280;6456;42.680;23.260;2024-02-16T09:38:11;95219.81;;;7.13;76.31
12785;BME280;6456;42.680;23.260;2024-02-16T09:40:41;95207.06;;;7.10;74.77
12785;BME280;6456;42.680;23.260;2024-02-16T09:43:08;95318.31;;;7.89;74.51
12785;BME280;6456;42.680;23.260;2024-02-16T09:45:36;95320.94;;;8.03;73.06
12785;BME280;6456;42.680;23.260;2024-02-16T09:48:07;95227.19;;;7.47;71.46
12785;BME280;6456;42.680;23.260;2024-02-16T09:50:35;95239.59;;;7.67;70.39
12785;BME280;6456;42.680;23.260;2024-02-16T09:53:04;95314.97;;;8.24;70.51
12785;BME280;6456;42.680;23.260;2024-02-16T09:55:32;95308.88;;;8.31;70.50
12785;BME280;6456;42.680;23.260;2024-02-16T09:58:01;95223.03;;;7.82;72.00
12785;BME280;6456;42.680;23.260;2024-02-16T10:00:30;95252.88;;;8.10;69.53
12785;BME280;6456;42.680;23.260;2024-02-16T10:02:57;95275.03;;;8.36;68.95
12785;BME280;6456;42.680;23.260;2024-02-16T10:05:24;95302.84;;;8.52;69.26
12785;BME280;6456;42.680;23.260;2024-02-16T10:07:52;95216.25;;;8.02;69.15
12785;BME280;6456;42.680;23.260;2024-02-16T10:10:22;95250.38;;;8.31;69.29
12785;BME280;6456;42.680;23.260;2024-02-16T10:12:50;95290.53;;;8.67;68.64
12785;BME280;6456;42.680;23.260;2024-02-16T10:15:22;95202.34;;;8.16;68.33
12785;BME280;6456;42.680;23.260;2024-02-16T10:17:59;95228.38;;;8.47;68.02
12785;BME280;6456;42.680;23.260;2024-02-16T10:20:28;95230.22;;;8.53;68.05
12785;BME280;6456;42.680;23.260;2024-02-16T10:23:04;95174.03;;;8.26;68.27
12785;BME280;6456;42.680;23.260;2024-02-16T10:25:31;95214.13;;;8.56;67.46
12785;BME280;6456;42.680;23.260;2024-02-16T10:27:58;95245.72;;;8.83;66.97
12785;BME280;6456;42.680;23.260;2024-02-16T10:30:30;95193.44;;;8.46;67.25
12785;BME280;6456;42.680;23.260;2024-02-16T10:32:58;95271.34;;;9.02;67.20
12785;BME280;6456;42.680;23.260;2024-02-16T10:35:25;95221.44;;;8.60;67.12
12785;BME280;6456;42.680;23.260;2024-02-16T10:37:54;95197.06;;;8.45;69.04
12785;BME280;6456;42.680;23.260;2024-02-16T10:40:23;95162.81;;;8.32;68.12
12785;BME280;6456;42.680;23.260;2024-02-16T10:42:50;95249.13;;;9.05;68.44
12785;BME280;6456;42.680;23.260;2024-02-16T10:45:17;95201.31;;;8.67;69.70
12785;BME280;6456;42.680;23.260;2024-02-16T10:47:49;95245.28;;;9.01;67.57
12785;BME280;6456;42.680;23.260;2024-02-16T10:50:16;95194.66;;;8.86;66.24
12785;BME280;6456;42.680;23.260;2024-02-16T10:52:45;95208.94;;;9.04;65.87
12785;BME280;6456;42.680;23.260;2024-02-16T10:55:17;95151.72;;;8.72;65.08
12785;BME280;6456;42.680;23.260;2024-02-16T10:57:44;95158.81;;;8.99;65.12
12785;BME280;6456;42.680;23.260;2024-02-16T11:00:16;95247.78;;;9.58;65.67
12785;BME280;6456;42.680;23.260;2024-02-16T11:02:56;95225.88;;;9.44;65.37
12785;BME280;6456;42.680;23.260;2024-02-16T11:05:34;95238.25;;;9.57;65.08
12785;BME280;6456;42.680;23.260;2024-02-16T11:08:03;95170.31;;;9.20;65.18
12785;BME280;6456;42.680;23.260;2024-02-16T11:10:30;95177.19;;;9.21;64.92
12785;BME280;6456;42.680;23.260;2024-02-16T11:13:02;95130.03;;;9.06;65.06
12785;BME280;6456;42.680;23.260;2024-02-16T11:15:31;95166.78;;;9.34;65.72
12785;BME280;6456;42.680;23.260;2024-02-16T11:18:02;95164.78;;;9.36;65.76
12785;BME280;6456;42.680;23.260;2024-02-16T11:20:36;95190.94;;;9.50;63.33
12785;BME280;6456;42.680;23.260;2024-02-16T11:23:08;95226.63;;;9.66;64.15
12785;BME280;6456;42.680;23.260;2024-02-16T11:25:39;95215.88;;;9.61;64.49
12785;BME280;6456;42.680;23.260;2024-02-16T11:28:06;95169.03;;;9.37;64.55
12785;BME280;6456;42.680;23.260;2024-02-16T11:30:33;95161.59;;;9.47;65.05
12785;BME280;6456;42.680;23.260;2024-02-16T11:33:03;95156.78;;;9.50;63.83
12785;BME280;6456;42.680;23.260;2024-02-16T11:35:30;95217.66;;;9.88;63.32
12785;BME280;6456;42.680;23.260;2024-02-16T11:37:57;95181.56;;;9.69;63.63
12785;BME280;6456;42.680;23.260;2024-02-16T11:40:24;95162.72;;;9.59;63.62
12785;BME280;6456;42.680;23.260;2024-02-16T11:42:59;95139.25;;;9.57;63.66
12785;BME280;6456;42.680;23.260;2024-02-16T11:45:27;95210.47;;;10.03;62.75
12785;BME280;6456;42.680;23.260;2024-02-16T11:48:06;95207.72;;;10.18;62.63
12785;BME280;6456;42.680;23.260;2024-02-16T11:50:33;95087.44;;;9.45;62.44
12785;BME280;6456;42.680;23.260;2024-02-16T11:53:00;95212.44;;;10.29;60.80
12785;BME280;6456;42.680;23.260;2024-02-16T11:55:30;95143.75;;;10.04;60.55
12785;BME280;6456;42.680;23.260;2024-02-16T11:57:58;95153.09;;;10.13;62.51
12785;BME280;6456;42.680;23.260;2024-02-16T12:00:25;95076.88;;;9.73;59.69
12785;BME280;6456;42.680;23.260;2024-02-16T12:06:06;95132.81;;;10.07;58.67
12785;BME280;6456;42.680;23.260;2024-02-16T12:08:36;95142.59;;;10.20;59.39
12785;BME280;6456;42.680;23.260;2024-02-16T12:11:04;95153.78;;;10.35;59.18
12785;BME280;6456;42.680;23.260;2024-02-16T12:13:35;95121.16;;;10.16;58.68
12785;BME280;6456;42.680;23.260;2024-02-16T12:16:03;95143.69;;;10.45;58.64
12785;BME280;6456;42.680;23.260;2024-02-16T12:18:42;95092.44;;;10.21;58.41
12785;BME280;6456;42.680;23.260;2024-02-16T12:21:21;95086.38;;;10.21;57.83
12785;BME280;6456;42.680;23.260;2024-02-16T12:23:49;95090.84;;;10.27;57.90
12785;BME280;6456;42.680;23.260;2024-02-16T12:26:18;95066.13;;;10.15;58.48
12785;BME280;6456;42.680;23.260;2024-02-16T12:28:45;95127.50;;;10.48;59.63
12785;BME280;6456;42.680;23.260;2024-02-16T12:31:20;95102.19;;;10.34;60.13
12785;BME280;6456;42.680;23.260;2024-02-16T12:33:49;95113.53;;;10.48;58.82
12785;BME280;6456;42.680;23.260;2024-02-16T12:36:16;95067.97;;;10.14;59.13
12785;BME280;6456;42.680;23.260;2024-02-16T12:38:53;95100.34;;;10.28;59.30
12785;BME280;6456;42.680;23.260;2024-02-16T12:41:25;95163.38;;;10.75;59.35
12785;BME280;6456;42.680;23.260;2024-02-16T12:43:52;95117.75;;;10.42;58.60
12785;BME280;6456;42.680;23.260;2024-02-16T12:46:19;95131.13;;;10.47;59.15
12785;BME280;6456;42.680;23.260;2024-02-16T12:48:46;95051.50;;;10.06;58.21
12785;BME280;6456;42.680;23.260;2024-02-16T12:51:15;95057.22;;;10.22;57.93
12785;BME280;6456;42.680;23.260;2024-02-16T12:53:43;95054.41;;;10.30;58.66
12785;BME280;6456;42.680;23.260;2024-02-16T12:56:11;95167.47;;;10.91;57.52
12785;BME280;6456;42.680;23.260;2024-02-16T12:58:43;95093.72;;;10.58;58.22
12785;BME280;6456;42.680;23.260;2024-02-16T13:01:10;95083.97;;;10.52;57.35
12785;BME280;6456;42.680;23.260;2024-02-16T13:03:38;95105.66;;;10.61;57.62
12785;BME280;6456;42.680;23.260;2024-02-16T13:06:09;95141.31;;;10.83;57.89
12785;BME280;6456;42.680;23.260;2024-02-16T13:08:38;95066.38;;;10.46;58.08
12785;BME280;6456;42.680;23.260;2024-02-16T13:11:06;95060.13;;;10.54;58.45
12785;BME280;6456;42.680;23.260;2024-02-16T13:13:34;95096.78;;;10.81;56.98
12785;BME280;6456;42.680;23.260;2024-02-16T13:16:01;95166.06;;;11.21;56.99
12785;BME280;6456;42.680;23.260;2024-02-16T13:18:28;95119.88;;;10.99;56.31
12785;BME280;6456;42.680;23.260;2024-02-16T13:20:56;95050.00;;;10.51;57.23